METAR Analyzer

一覧表示

Hello, Guest. (Login)

EDDF/FRA  -  フランクフルト

観測日時
2020-10-25 14:20 (UTC) (22分前)
気温
16
露点
9
湿数
7
相対湿度
63.1%
QNH
1005hPa
推定現地気圧
991.8hPa
推定海面気圧
1004.9hPa
体感温度
7.8
(無風時)
17.2
HI
15.3
気温前日比
+1
体感温度前日比
+2.9
HI前日比
+1
水平視程
>10000m
鉛直視程
データなし
雲底高度
No dense clouds
V/I
VMC (VFR)
RVR
No RVR data
卓越風
8kt from 170° (140° ~ 200°)
ガスト
No gust
降水
弱い雨
その他の天気
報告なし
少しの雲 @ 2300ft AGL / 散在する雲 @ 3500ft AGL

EDDF 251420Z 17008KT 140V200 9999 -RA FEW023 SCT035 16/09 Q1005 NOSIG

EDDM/MUC  -  ミュンヘン

観測日時
2020-10-25 14:20 (UTC) (22分前)
気温
13
露点
10
湿数
3
相対湿度
82%
QNH
1009hPa
推定現地気圧
955.9hPa
推定海面気圧
1008.8hPa
体感温度
4.3
(無風時)
15.1
HI
12.5
気温前日比
-1
体感温度前日比
-0.9
HI前日比
-1
水平視程
>10000m
鉛直視程
データなし
雲底高度
No dense clouds
V/I
VMC (VFR)
RVR
No RVR data
卓越風
7kt from 90°
ガスト
No gust
降水
報告なし
その他の天気
報告なし
報告なし

EDDM 251420Z 09007KT CAVOK 13/10 Q1009 NOSIG

EDDL/DUS  -  デュッセルドルフ

観測日時
2020-10-25 14:20 (UTC) (22分前)
気温
12
露点
10
湿数
2
相対湿度
87.6%
QNH
1002hPa
推定現地気圧
996.7hPa
推定海面気圧
1002.1hPa
体感温度
2.9
(無風時)
14.4
HI
11.5
気温前日比
-4
体感温度前日比
-3.8
HI前日比
-4
水平視程
>10000m
鉛直視程
データなし
雲底高度
No dense clouds
V/I
VMC (VFR)
RVR
No RVR data
卓越風
7kt from 180°
ガスト
No gust
降水
弱い雨
その他の天気
報告なし
少しの雲 @ 2000ft AGL / 散在する雲 @ 3000ft AGL

EDDL 251420Z 18007KT 9999 -RA FEW020 SCT030 12/10 Q1002 NOSIG

LFPG/CDG  -  パリ=シャルル・ド・ゴール

観測日時
2020-10-25 14:30 (UTC) (12分前)
気温
12
露点
9
湿数
3
相対湿度
81.9%
QNH
1002hPa
推定現地気圧
987.9hPa
推定海面気圧
1002.1hPa
体感温度
1.2
(無風時)
14.3
HI
11.4
気温前日比
-3
体感温度前日比
-2.4
HI前日比
-3.4
水平視程
>10000m
鉛直視程
データなし
雲底高度
2300ft AGL
V/I
VMC (VFR)
RVR
No RVR data
卓越風
11kt from 200°
ガスト
No gust
降水
報告なし
その他の天気
報告なし
少しの雲 @ 1200ft AGL / 隙間のある雲 @ 2300ft AGL / 隙間のある雲 @ 6200ft AGL

LFPG 251430Z 20011KT 9999 FEW012 BKN023 BKN062 12/09 Q1002 NOSIG

EGLL/LHR  -  ロンドン・ヒースロー

観測日時
2020-10-25 14:20 (UTC) (22分前)
気温
12
露点
7
湿数
5
相対湿度
71.4%
QNH
996hPa
推定現地気圧
993.0hPa
推定海面気圧
996.0hPa
体感温度
1.2
(無風時)
14.2
HI
11.1
気温前日比
-4
体感温度前日比
-3.7
HI前日比
-4.6
水平視程
>10000m
鉛直視程
データなし
雲底高度
No dense clouds
V/I
VMC (VFR)
RVR
No RVR data
卓越風
12kt from 200°
ガスト
No gust
降水
報告なし
その他の天気
報告なし
目立った雲なし

EGLL 251420Z AUTO 20012KT 9999 NCD 12/07 Q0996

6msec